createdAt,value
2019-04-21T00:01:18.431Z,10.20
2019-04-21T00:03:53.713Z,10.10
2019-04-21T00:06:48.393Z,10.00
2019-04-21T00:09:21.058Z,9.90
2019-04-21T00:11:42.558Z,9.80
2019-04-21T00:14:06.077Z,9.90
2019-04-21T00:16:35.653Z,9.90
2019-04-21T00:19:13.000Z,9.90
2019-04-21T00:21:45.749Z,9.80
2019-04-21T00:24:24.169Z,9.80
2019-04-21T00:26:57.409Z,9.70
2019-04-21T00:29:35.433Z,9.60
2019-04-21T00:31:57.916Z,9.60
2019-04-21T00:34:15.473Z,9.40
2019-04-21T00:36:57.355Z,9.30
2019-04-21T00:39:49.588Z,9.10
2019-04-21T00:42:12.907Z,9.20
2019-04-21T00:44:33.236Z,9.20
2019-04-21T00:47:21.192Z,8.90
2019-04-21T00:49:43.138Z,8.80
2019-04-21T00:52:51.057Z,8.70
2019-04-21T00:55:29.642Z,8.70
2019-04-21T00:57:57.113Z,8.70
2019-04-21T01:00:22.175Z,8.70
2019-04-21T01:02:56.092Z,8.60
2019-04-21T01:05:21.160Z,8.50
2019-04-21T01:07:50.739Z,8.60
2019-04-21T01:10:23.309Z,8.40
2019-04-21T01:12:57.310Z,8.50
2019-04-21T01:15:37.380Z,8.50
2019-04-21T01:17:57.672Z,8.60
2019-04-21T01:20:16.729Z,8.60
2019-04-21T01:22:38.576Z,8.60
2019-04-21T01:25:16.525Z,8.70
2019-04-21T01:28:16.673Z,8.70
2019-04-21T01:31:15.298Z,8.60
2019-04-21T01:33:44.975Z,8.50
2019-04-21T01:36:11.040Z,8.40
2019-04-21T01:38:52.475Z,8.50
2019-04-21T01:41:13.007Z,8.50
2019-04-21T01:43:39.763Z,8.50
2019-04-21T01:46:10.718Z,8.50
2019-04-21T01:48:39.088Z,8.30
2019-04-21T01:51:08.522Z,8.20
2019-04-21T01:54:14.686Z,8.10
2019-04-21T01:57:10.379Z,8.10
2019-04-21T01:59:39.569Z,8.20
2019-04-21T02:02:13.890Z,8.20
2019-04-21T02:04:47.439Z,8.00
2019-04-21T02:07:20.687Z,8.00
2019-04-21T02:09:51.315Z,8.00
2019-04-21T02:12:20.701Z,8.00
2019-04-21T02:14:58.192Z,8.00
2019-04-21T02:17:23.310Z,7.90
2019-04-21T02:19:51.741Z,7.90
2019-04-21T02:23:00.441Z,8.00
2019-04-21T02:25:44.203Z,8.00
2019-04-21T02:28:24.488Z,8.00
2019-04-21T02:36:24.655Z,7.90
2019-04-21T02:38:41.582Z,8.00
2019-04-21T02:41:01.318Z,7.90
2019-04-21T02:43:25.794Z,7.90
2019-04-21T02:46:10.345Z,7.80
2019-04-21T02:48:39.401Z,7.80
2019-04-21T02:50:57.740Z,7.70
2019-04-21T02:56:13.901Z,7.70
2019-04-21T02:59:01.905Z,7.60
2019-04-21T03:01:38.219Z,7.40
2019-04-21T03:04:10.568Z,7.30
2019-04-21T03:07:09.784Z,7.20
2019-04-21T03:12:11.640Z,7.10
2019-04-21T03:14:47.998Z,7.00
2019-04-21T03:17:08.566Z,6.90
2019-04-21T03:25:00.905Z,6.80
2019-04-21T03:29:37.032Z,6.80
2019-04-21T03:35:18.404Z,6.90
2019-04-21T03:37:16.797Z,6.90
2019-04-21T03:42:30.631Z,6.90
2019-04-21T03:44:59.970Z,6.80
2019-04-21T03:47:28.815Z,6.90
2019-04-21T03:49:54.622Z,6.90
2019-04-21T03:52:29.711Z,6.90
2019-04-21T04:03:42.209Z,6.60
2019-04-21T04:08:59.334Z,6.30
2019-04-21T04:13:57.973Z,6.10
2019-04-21T04:21:30.847Z,6.10
2019-04-21T04:26:45.442Z,6.20
2019-04-21T04:29:17.942Z,6.30
2019-04-21T04:31:43.201Z,6.40
2019-04-21T04:34:35.966Z,6.50
2019-04-21T04:36:58.562Z,6.50
2019-04-21T04:39:43.883Z,6.40
2019-04-21T04:43:11.805Z,6.40
2019-04-21T04:44:57.068Z,6.30
2019-04-21T04:52:27.643Z,6.20
2019-04-21T04:55:01.825Z,6.30
2019-04-21T04:57:21.751Z,6.10
2019-04-21T04:59:47.762Z,6.10
2019-04-21T05:04:58.635Z,6.10
2019-04-21T05:07:21.270Z,6.10
2019-04-21T05:09:52.523Z,6.20
2019-04-21T05:13:01.825Z,6.10
2019-04-21T05:15:23.959Z,6.20
2019-04-21T05:18:03.167Z,6.20
2019-04-21T05:20:49.251Z,6.30
2019-04-21T05:22:54.515Z,6.30
2019-04-21T05:25:18.581Z,6.40
2019-04-21T05:27:52.480Z,6.30
2019-04-21T05:30:50.063Z,6.40
2019-04-21T05:33:43.082Z,6.40
2019-04-21T05:36:29.017Z,6.30
2019-04-21T05:39:21.607Z,6.30
2019-04-21T05:41:42.010Z,6.30
2019-04-21T05:44:27.966Z,6.50
2019-04-21T05:47:11.214Z,6.40
2019-04-21T05:49:32.741Z,6.50
2019-04-21T05:52:05.438Z,6.60
2019-04-21T05:55:06.375Z,6.80
2019-04-21T05:57:11.566Z,6.80
2019-04-21T05:59:43.736Z,6.90
2019-04-21T06:02:22.223Z,7.00
2019-04-21T06:05:14.180Z,7.10
2019-04-21T06:09:56.392Z,7.30
2019-04-21T06:12:28.378Z,7.40
2019-04-21T06:15:08.795Z,7.30
2019-04-21T06:17:36.311Z,7.50
2019-04-21T06:20:07.925Z,7.50
2019-04-21T06:22:46.790Z,7.60
2019-04-21T06:27:49.327Z,7.60
2019-04-21T06:30:10.396Z,7.70
2019-04-21T06:35:48.484Z,7.60
2019-04-21T06:38:05.787Z,7.60
2019-04-21T06:40:43.717Z,7.80
2019-04-21T06:43:24.637Z,8.00
2019-04-21T06:45:48.934Z,8.10
2019-04-21T06:48:20.749Z,8.20
2019-04-21T06:50:55.471Z,8.40
2019-04-21T06:53:20.856Z,8.40
2019-04-21T06:55:57.424Z,8.60
2019-04-21T06:58:26.295Z,8.90
2019-04-21T07:01:10.210Z,9.20
2019-04-21T07:03:34.657Z,9.50
2019-04-21T07:06:12.695Z,11.30
2019-04-21T07:09:06.047Z,13.70
2019-04-21T07:11:21.651Z,14.50
2019-04-21T07:13:54.634Z,16.10
2019-04-21T07:16:27.069Z,16.50
2019-04-21T07:19:00.038Z,16.90
2019-04-21T07:21:26.151Z,16.50
2019-04-21T07:23:51.871Z,15.40
2019-04-21T07:26:19.390Z,17.80
2019-04-21T07:29:00.137Z,17.90
2019-04-21T07:31:40.414Z,18.80
2019-04-21T07:34:21.716Z,18.60
2019-04-21T07:36:51.834Z,19.40
2019-04-21T07:39:18.021Z,16.50
2019-04-21T07:41:48.504Z,18.60
2019-04-21T07:44:15.019Z,19.70
2019-04-21T07:46:50.311Z,19.60
2019-04-21T07:49:52.849Z,20.00
2019-04-21T07:52:34.906Z,19.30
2019-04-21T07:57:52.650Z,19.90
2019-04-21T08:02:54.468Z,20.20
2019-04-21T08:05:31.336Z,18.70
2019-04-21T08:07:58.668Z,20.10
2019-04-21T08:10:40.833Z,19.20
2019-04-21T08:13:14.681Z,20.20
2019-04-21T08:15:44.632Z,20.40
2019-04-21T08:18:12.920Z,21.00
2019-04-21T08:20:44.227Z,21.40
2019-04-21T08:23:40.236Z,21.00
2019-04-21T08:26:22.077Z,20.80
2019-04-21T08:28:53.788Z,20.40
2019-04-21T08:31:32.400Z,21.50
2019-04-21T08:34:04.174Z,20.80
2019-04-21T08:38:59.691Z,22.20
2019-04-21T08:46:17.217Z,23.00
2019-04-21T08:48:52.618Z,22.90
2019-04-21T08:51:27.920Z,21.80
2019-04-21T08:53:55.127Z,23.20
2019-04-21T08:56:46.734Z,22.80
2019-04-21T08:59:38.364Z,23.50
2019-04-21T09:02:40.414Z,23.40
2019-04-21T09:05:04.846Z,25.10
2019-04-21T09:08:55.451Z,25.00
2019-04-21T09:12:10.649Z,24.80
2019-04-21T09:14:52.186Z,25.90
2019-04-21T09:17:25.061Z,25.20
2019-04-21T09:20:13.868Z,23.70
2019-04-21T09:22:37.739Z,25.30
2019-04-21T09:25:09.378Z,26.10
2019-04-21T09:27:47.239Z,26.70
2019-04-21T09:30:08.910Z,23.90
2019-04-21T09:32:38.499Z,25.70
2019-04-21T09:35:12.441Z,26.80
2019-04-21T09:37:49.538Z,23.30
2019-04-21T09:40:26.876Z,21.90
2019-04-21T09:42:58.641Z,21.30
2019-04-21T09:45:32.842Z,21.20
2019-04-21T09:49:05.728Z,21.10
2019-04-21T09:51:37.176Z,21.00
2019-04-21T09:54:18.987Z,21.10
2019-04-21T09:56:52.445Z,21.00
2019-04-21T10:06:28.449Z,20.90
2019-04-21T10:09:02.723Z,21.20
2019-04-21T10:11:26.946Z,21.20
2019-04-21T10:13:55.506Z,20.60
2019-04-21T10:16:42.915Z,20.80
2019-04-21T10:19:11.277Z,20.80
2019-04-21T10:21:44.453Z,20.90
2019-04-21T10:24:22.208Z,20.90
2019-04-21T10:26:58.973Z,21.30
2019-04-21T10:29:33.385Z,21.20
2019-04-21T10:32:15.421Z,21.10
2019-04-21T10:34:49.598Z,21.30
2019-04-21T10:37:40.092Z,20.90
2019-04-21T10:40:03.496Z,20.90
2019-04-21T10:42:33.195Z,20.80
2019-04-21T10:45:05.080Z,20.90
2019-04-21T10:47:36.834Z,21.20
2019-04-21T10:50:13.225Z,21.10
2019-04-21T10:53:19.010Z,21.20
2019-04-21T10:56:00.397Z,21.30
2019-04-21T10:58:24.536Z,21.00
2019-04-21T11:01:14.391Z,20.70
2019-04-21T11:04:00.812Z,20.90
2019-04-21T11:06:52.529Z,21.00
2019-04-21T11:09:15.841Z,21.00
2019-04-21T11:11:59.973Z,21.10
2019-04-21T11:14:31.500Z,21.30
2019-04-21T11:17:02.239Z,21.30
2019-04-21T11:19:34.861Z,21.50
2019-04-21T11:22:10.403Z,21.60
2019-04-21T11:24:53.330Z,21.30
2019-04-21T11:27:26.815Z,21.60
2019-04-21T11:29:55.742Z,21.60
2019-04-21T11:32:30.899Z,21.50
2019-04-21T11:35:03.346Z,21.30
2019-04-21T11:37:34.767Z,21.60
2019-04-21T11:40:12.482Z,21.80
2019-04-21T11:42:44.141Z,21.50
2019-04-21T11:45:16.585Z,21.50
2019-04-21T11:48:06.150Z,21.50
2019-04-21T11:50:55.546Z,21.80
2019-04-21T11:53:44.231Z,21.70
2019-04-21T11:56:16.799Z,21.80
2019-04-21T11:58:57.795Z,22.20
2019-04-21T12:01:31.747Z,22.10
2019-04-21T12:04:09.619Z,22.10
2019-04-21T12:06:47.125Z,22.10
2019-04-21T12:09:29.280Z,22.10
2019-04-21T12:11:57.548Z,22.00
2019-04-21T12:14:28.076Z,22.00
2019-04-21T12:17:16.333Z,22.20
2019-04-21T12:20:30.594Z,22.20
2019-04-21T12:23:02.474Z,22.20
2019-04-21T12:25:40.870Z,22.50
2019-04-21T12:28:21.890Z,22.50
2019-04-21T12:34:55.898Z,22.80
2019-04-21T12:37:35.100Z,23.00
2019-04-21T12:40:10.422Z,22.80
2019-04-21T12:42:39.324Z,22.70
2019-04-21T12:45:17.425Z,22.20
2019-04-21T12:52:03.736Z,22.20
2019-04-21T12:54:35.513Z,22.30
2019-04-21T12:57:19.256Z,22.70
2019-04-21T12:59:50.833Z,22.60
2019-04-21T13:02:27.507Z,23.00
2019-04-21T13:05:00.263Z,22.50
2019-04-21T13:07:29.485Z,22.80
2019-04-21T13:10:02.353Z,22.20
2019-04-21T13:12:48.531Z,22.70
2019-04-21T13:15:22.280Z,22.80
2019-04-21T13:17:50.335Z,22.60
2019-04-21T13:20:23.303Z,23.00
2019-04-21T13:22:55.001Z,22.80
2019-04-21T13:25:27.732Z,22.80
2019-04-21T13:30:49.102Z,23.20
2019-04-21T13:33:18.880Z,23.40
2019-04-21T13:35:49.087Z,23.50
2019-04-21T13:38:32.990Z,23.60
2019-04-21T13:41:24.451Z,23.20
2019-04-21T13:43:59.126Z,22.60
2019-04-21T13:46:28.886Z,22.80
2019-04-21T13:49:03.173Z,23.40
2019-04-21T13:51:38.210Z,23.60
2019-04-21T13:54:11.532Z,23.20
2019-04-21T13:56:52.272Z,23.20
2019-04-21T14:06:30.126Z,22.80
2019-04-21T14:09:03.265Z,22.90
2019-04-21T14:12:13.740Z,23.00
2019-04-21T14:15:04.162Z,23.30
2019-04-21T14:17:40.452Z,23.50
2019-04-21T14:20:21.786Z,22.80
2019-04-21T14:22:51.965Z,23.20
2019-04-21T14:28:22.022Z,22.90
2019-04-21T14:31:19.997Z,23.00
2019-04-21T14:34:16.276Z,23.10
2019-04-21T14:37:06.440Z,23.40
2019-04-21T14:42:49.953Z,23.00
2019-04-21T14:46:29.130Z,22.70
2019-04-21T14:49:17.357Z,22.70
2019-04-21T14:51:55.141Z,22.80
2019-04-21T14:54:47.179Z,23.10
2019-04-21T14:57:29.514Z,23.20
2019-04-21T15:00:20.933Z,22.70
2019-04-21T15:03:50.004Z,23.20
2019-04-21T15:06:39.343Z,23.30
2019-04-21T15:09:15.431Z,22.70
2019-04-21T15:11:47.718Z,23.10
2019-04-21T15:18:34.654Z,23.00
2019-04-21T15:21:03.642Z,23.00
2019-04-21T15:23:33.813Z,22.80
2019-04-21T15:26:04.177Z,22.70
2019-04-21T15:28:37.256Z,22.80
2019-04-21T15:31:28.800Z,22.80
2019-04-21T15:34:05.369Z,22.50
2019-04-21T15:36:35.198Z,22.50
2019-04-21T15:39:13.946Z,22.70
2019-04-21T15:52:02.567Z,22.80
2019-04-21T15:54:34.610Z,22.90
2019-04-21T15:57:14.042Z,22.70
2019-04-21T16:00:02.677Z,22.40
2019-04-21T16:02:42.731Z,22.40
2019-04-21T16:05:12.860Z,22.50
2019-04-21T16:07:47.938Z,22.50
2019-04-21T16:10:42.827Z,22.40
2019-04-21T16:13:05.737Z,22.40
2019-04-21T16:15:40.909Z,22.30
2019-04-21T16:18:12.063Z,22.40
2019-04-21T16:20:45.911Z,22.40
2019-04-21T16:23:14.922Z,22.50
2019-04-21T16:25:44.389Z,22.30
2019-04-21T16:28:15.504Z,22.20
2019-04-21T16:30:46.534Z,22.20
2019-04-21T16:33:16.033Z,22.20
2019-04-21T16:35:49.797Z,22.20
2019-04-21T16:38:19.729Z,22.20
2019-04-21T16:41:04.486Z,22.00
2019-04-21T16:43:33.036Z,22.00
2019-04-21T16:46:06.711Z,22.10
2019-04-21T16:48:42.010Z,22.10
2019-04-21T16:51:18.050Z,22.10
2019-04-21T16:53:57.764Z,22.00
2019-04-21T16:56:47.901Z,22.00
2019-04-21T16:59:39.013Z,21.90
2019-04-21T17:02:12.431Z,21.90
2019-04-21T17:04:46.206Z,21.80
2019-04-21T17:07:26.145Z,21.80
2019-04-21T17:10:20.280Z,21.40
2019-04-21T17:12:49.288Z,21.40
2019-04-21T17:15:32.505Z,21.30
2019-04-21T17:18:20.784Z,21.30
2019-04-21T17:20:42.940Z,21.30
2019-04-21T17:23:04.277Z,21.20
2019-04-21T17:25:37.093Z,21.10
2019-04-21T17:28:13.802Z,21.00
2019-04-21T17:30:46.422Z,21.00
2019-04-21T17:33:22.697Z,20.90
2019-04-21T17:36:11.497Z,20.70
2019-04-21T17:38:46.393Z,20.60
2019-04-21T17:41:27.822Z,20.60
2019-04-21T17:48:10.173Z,20.30
2019-04-21T17:51:07.478Z,20.10
2019-04-21T17:54:41.309Z,20.00
2019-04-21T17:58:03.438Z,19.90
2019-04-21T18:01:06.518Z,19.80
2019-04-21T18:06:07.520Z,19.60
2019-04-21T18:08:48.321Z,19.50
2019-04-21T18:11:12.687Z,19.30
2019-04-21T18:13:37.569Z,19.30
2019-04-21T18:16:23.023Z,19.20
2019-04-21T18:19:02.616Z,19.10
2019-04-21T18:21:58.289Z,19.10
2019-04-21T18:25:05.684Z,19.10
2019-04-21T18:27:40.789Z,19.10
2019-04-21T18:30:56.578Z,18.90
2019-04-21T18:34:07.977Z,18.80
2019-04-21T18:36:51.596Z,18.70
2019-04-21T18:39:43.643Z,18.50
2019-04-21T18:42:36.303Z,18.50
2019-04-21T18:45:34.478Z,18.40
2019-04-21T18:47:57.109Z,18.50
2019-04-21T18:50:46.231Z,18.50
2019-04-21T18:53:54.327Z,18.40
2019-04-21T18:56:57.886Z,18.20
2019-04-21T18:59:45.740Z,18.20
2019-04-21T19:02:42.630Z,18.20
2019-04-21T19:09:56.152Z,18.10
2019-04-21T19:13:17.402Z,17.90
2019-04-21T19:18:45.786Z,17.80
2019-04-21T19:21:11.221Z,17.80
2019-04-21T19:23:52.077Z,17.80
2019-04-21T19:29:21.411Z,17.80
2019-04-21T19:31:41.583Z,17.70
2019-04-21T19:34:02.579Z,17.70
2019-04-21T19:36:23.530Z,17.70
2019-04-21T19:39:12.823Z,17.70
2019-04-21T19:49:28.018Z,17.50
2019-04-21T19:52:36.775Z,17.50
2019-04-21T19:58:18.778Z,17.30
2019-04-21T20:01:03.556Z,17.10
2019-04-21T20:03:36.673Z,17.00
2019-04-21T20:06:27.522Z,17.10
2019-04-21T20:09:13.822Z,16.90
2019-04-21T20:12:02.889Z,16.80
2019-04-21T20:14:59.333Z,16.70
2019-04-21T20:17:16.117Z,16.60
2019-04-21T20:19:36.274Z,16.50
2019-04-21T20:22:07.145Z,16.40
2019-04-21T20:24:50.025Z,16.30
2019-04-21T20:27:50.948Z,16.20
2019-04-21T20:30:53.320Z,16.20
2019-04-21T20:33:48.761Z,16.10
2019-04-21T20:36:02.110Z,16.00
2019-04-21T20:38:24.776Z,15.90
2019-04-21T20:41:01.278Z,15.80
2019-04-21T20:43:42.661Z,15.70
2019-04-21T20:46:11.993Z,15.70
2019-04-21T20:48:48.036Z,15.60
2019-04-21T20:52:09.816Z,15.50
2019-04-21T20:55:14.315Z,15.50
2019-04-21T20:57:53.778Z,15.50
2019-04-21T21:04:51.547Z,15.40
2019-04-21T21:08:05.134Z,15.50
2019-04-21T21:10:37.329Z,15.50
2019-04-21T21:16:44.946Z,15.40
2019-04-21T21:22:22.797Z,15.30
2019-04-21T21:28:41.537Z,15.30
2019-04-21T21:31:25.465Z,15.20
2019-04-21T21:37:07.698Z,14.70
2019-04-21T21:40:12.694Z,14.60
2019-04-21T21:43:06.957Z,14.50
2019-04-21T21:46:24.924Z,14.30
2019-04-21T21:49:05.127Z,14.10
2019-04-21T21:51:49.961Z,14.00
2019-04-21T21:54:10.013Z,14.00
2019-04-21T21:56:40.613Z,13.80
2019-04-21T21:59:31.103Z,13.70
2019-04-21T22:02:03.158Z,13.50
2019-04-21T22:04:35.677Z,13.50
2019-04-21T22:07:12.363Z,13.50
2019-04-21T22:10:17.987Z,13.50
2019-04-21T22:13:14.711Z,13.40
2019-04-21T22:15:41.646Z,13.00
2019-04-21T22:18:28.796Z,12.90
2019-04-21T22:21:07.721Z,12.90
2019-04-21T22:23:51.501Z,12.80
2019-04-21T22:26:21.007Z,12.70
2019-04-21T22:29:05.605Z,12.70
2019-04-21T22:32:02.749Z,12.60
2019-04-21T22:34:51.440Z,12.50
2019-04-21T22:37:29.963Z,12.60
2019-04-21T22:40:11.251Z,12.60
2019-04-21T22:42:53.592Z,12.60
2019-04-21T22:45:19.781Z,12.50
2019-04-21T22:48:14.405Z,12.40
2019-04-21T22:50:40.378Z,12.50
2019-04-21T22:53:28.038Z,12.30
2019-04-21T22:56:10.932Z,12.20
2019-04-21T22:58:39.277Z,12.10
2019-04-21T23:01:09.666Z,12.10
2019-04-21T23:03:47.851Z,12.00
2019-04-21T23:06:22.012Z,12.00
2019-04-21T23:08:57.464Z,12.00
2019-04-21T23:12:03.228Z,12.00
2019-04-21T23:14:45.304Z,11.80
2019-04-21T23:17:29.950Z,11.80
2019-04-21T23:20:02.773Z,11.80
2019-04-21T23:23:12.114Z,11.80
2019-04-21T23:25:40.056Z,11.70
2019-04-21T23:28:10.132Z,11.50
2019-04-21T23:30:50.377Z,11.50
2019-04-21T23:33:03.584Z,11.50
2019-04-21T23:35:35.188Z,11.30
2019-04-21T23:38:03.543Z,11.20
2019-04-21T23:40:32.996Z,11.10
2019-04-21T23:43:09.571Z,11.20
2019-04-21T23:45:41.182Z,11.10
2019-04-21T23:48:18.470Z,11.00
2019-04-21T23:50:52.359Z,11.00
2019-04-21T23:53:15.435Z,10.90
2019-04-21T23:55:49.594Z,10.80
2019-04-21T23:58:25.540Z,10.80
